FranceFixed distance
Luchon Aneto Trail - L'Ultra Lat
9–10 Jul2022
Distance
85km
Finishers
170157 men13 women
Winning time
10:27:06h
Median pace
5.27km/h
Pace distribution
170 finishers · 4.37–8.13 km/h · mean 5.49
Every finisher ran the same 85 km course, so these paces are directly comparable.
Histogram of finisher pace. 170 finishers ranged from 4.37 to 8.13 kilometres per hour, with a mean of 5.49 and a median of 5.27. The busiest band is 4.5 to 5.0 kilometres per hour, with 48 finishers.
Results
Ranks 151–170 of 170
| Rank | Runner | Time | Pace | Cat. | Placing |
|---|---|---|---|---|---|
| 151 | 18:19:09h | 4.64 | M60 | 140th M · 1st M60 | |
| 152 | Mtnv | 18:20:51h | 4.63 | M40 | 141st M · 30th M40 |
| 153 | *Anglet | 18:22:02h | 4.63 | M45 | 142nd M · 26th M45 |
| 154 | Baudet du Poitou | 18:24:06h | 4.62 | M40 | 143rd M · 31st M40 |
| 155 | LA Foulée Meynoise | 18:27:52h | 4.60 | W45 | 12th F · 4th W45 |
| 156 | 18:28:04h | 4.60 | M35 | 144th M · 26th M35 | |
| 157 | Tyrosse | 18:30:54h | 4.59 | M40 | 145th M · 32nd M40 |
| 158 | 18:40:33h | 4.55 | M35 | 146th M · 27th M35 | |
| 159 | les P'Tits Loups | 18:46:47h | 4.53 | M45 | 147th M · 27th M45 |
| 160 | *Peyssies | 18:47:03h | 4.53 | M35 | 148th M · 28th M35 |
| 161 | Tcap 81 | 18:48:17h | 4.52 | M45 | 149th M · 28th M45 |
| 162 | Uglow Family | 18:48:36h | 4.52 | M40 | 150th M · 33rd M40 |
| 163 | *Aigrefeuille-Sur-Maine | 18:48:59h | 4.52 | M40 | 151st M · 34th M40 |
| 164 | *Sinzos | 18:49:01h | 4.52 | M35 | 152nd M · 29th M35 |
| 165 | Runinangers | 18:49:59h | 4.51 | M40 | 153rd M · 35th M40 |
| 166 | *Le Bouscat | 18:58:37h | 4.48 | M35 | 154th M · 30th M35 |
| 167 | *Assérac | 19:09:07h | 4.44 | M45 | 155th M · 29th M45 |
| 168 | 15 EME Parallele | 19:09:11h | 4.44 | W45 | 13th F · 5th W45 |
| 169 | Asat Tisséo Toulouse | 19:24:42h | 4.38 | M45 | 156th M · 30th M45 |
| 170 | 19:27:24h | 4.37 | M50 | 157th M · 5th M50 |
- 151140th M · 1st M60Time18:19:09hPace4.64Cat.M60
- 152Mtnv141st M · 30th M40Time18:20:51hPace4.63Cat.M40
- 153*Anglet142nd M · 26th M45Time18:22:02hPace4.63Cat.M45
- 154Baudet du Poitou143rd M · 31st M40Time18:24:06hPace4.62Cat.M40
- 155LA Foulée Meynoise12th F · 4th W45Time18:27:52hPace4.60Cat.W45
- 156144th M · 26th M35Time18:28:04hPace4.60Cat.M35
- 157Tyrosse145th M · 32nd M40Time18:30:54hPace4.59Cat.M40
- 158146th M · 27th M35Time18:40:33hPace4.55Cat.M35
- 159les P'Tits Loups147th M · 27th M45Time18:46:47hPace4.53Cat.M45
- 160*Peyssies148th M · 28th M35Time18:47:03hPace4.53Cat.M35
- 161Tcap 81149th M · 28th M45Time18:48:17hPace4.52Cat.M45
- 162Uglow Family150th M · 33rd M40Time18:48:36hPace4.52Cat.M40
- 163*Aigrefeuille-Sur-Maine151st M · 34th M40Time18:48:59hPace4.52Cat.M40
- 164*Sinzos152nd M · 29th M35Time18:49:01hPace4.52Cat.M35
- 165Runinangers153rd M · 35th M40Time18:49:59hPace4.51Cat.M40
- 166*Le Bouscat154th M · 30th M35Time18:58:37hPace4.48Cat.M35
- 167*Assérac155th M · 29th M45Time19:09:07hPace4.44Cat.M45
- 16815 EME Parallele13th F · 5th W45Time19:09:11hPace4.44Cat.W45
- 169Asat Tisséo Toulouse156th M · 30th M45Time19:24:42hPace4.38Cat.M45
- 170157th M · 5th M50Time19:27:24hPace4.37Cat.M50
Showing ranks 151–170 of 170